Vremea acum in Campulung - Romania

Vrei sa afli care e starea vremii acum in Giurgiu - Romania? Dorim sa iti furnizam starea vremii pentru Giurgiu - Romania. Starea vremii Giurgiu - Romania pentru astazi.

Vremea acum in Campulung

Temperatura: 11 °C

Se simte ca: 11 °C
Innorat: 50 %
Precipitatii: %
Presiune atmosferica: 1023 hPa
Umiditate: 87%
Vizibilitate: 8 km
Vantul bate din N cu 0 km/h

Evolutia vremii in Campulung pe ore

Ora: 21:00
Temperatura: °C
Sansa de precipitatii: %
Ora Descriere Temp Se simte Precipitatii Umiditate Vant
00:00Noros5.8°5.8°43%92%WSW 1.1 KM/H
01:00Ploi moderate7.7°7.7°22%93%W 1.8 KM/H
02:00Noros9.6°9.6°0%93%W 2.2 KM/H
03:00Ploi uşoare9.4°9.4°24%94%W 2.5 KM/H
04:00Noros9.2°9.2°47%95%WSW 2.5 KM/H
05:00Ploi uşoare71%95%WSW 2.9 KM/H
06:00Burniță uşoară pe porțiuni9.3°9.3°73%94%WSW 3.2 KM/H
07:00Ploi uşoare9.5°9.7°74%92%WSW 3.2 KM/H
08:00Burniță uşoară pe porțiuni9.8°10°76%91%WSW 3.6 KM/H
09:00Ploi pe porţiuni în apropiere10.7°10.7°71%84%WSW 4.7 KM/H
10:00Burniță uşoară pe porțiuni11.6°11.4°65%78%WSW 6.1 KM/H
11:00Ploi pe porţiuni în apropiere12.5°12.1°60%72%SW 7.2 KM/H
12:00Ploi pe porţiuni în apropiere12°11.8°66%70%WSW 6.1 KM/H
13:00Ploi pe porţiuni în apropiere11.6°11.6°71%68%WSW 5 KM/H
14:00Ploi pe porţiuni în apropiere11.1°11.3°77%66%WSW 4 KM/H
15:00Parțial noros10.4°10.6°51%68%WSW 3.6 KM/H
16:00Ploi pe porţiuni în apropiere9.8°9.8°26%71%SW 3.2 KM/H
17:00Parțial noros9.1°9.1°0%73%SW 2.9 KM/H
18:00Parțial noros8.6°8.5°0%76%SSE 3.6 KM/H
19:00Parțial noros8.2°7.9°0%79%E 4 KM/H
20:00Parțial noros7.7°7.3°0%82%NNE 4.7 KM/H
21:00Parțial noros7.5°6.9°0%82%NNE 5.4 KM/H
22:00Parțial noros7.3°6.4°0%81%NNE 5.8 KM/H
23:00Parțial noros7.1°0%81%NNE 6.5 KM/H